createdAt,value
2023-06-10T00:00:33.892Z,100011.75
2023-06-10T00:03:37.603Z,100036.63
2023-06-10T00:06:40.704Z,100014.56
2023-06-10T00:09:43.058Z,100030.34
2023-06-10T00:12:45.493Z,100033.81
2023-06-10T00:15:47.897Z,100007.25
2023-06-10T00:18:52.287Z,100011.44
2023-06-10T00:21:54.753Z,100015.78
2023-06-10T00:25:00.373Z,99997.84
2023-06-10T00:28:02.744Z,100015.94
2023-06-10T00:31:06.148Z,100033.81
2023-06-10T00:34:09.363Z,100007.75
2023-06-10T00:37:11.780Z,100022.34
2023-06-10T00:40:14.299Z,100022.69
2023-06-10T00:43:16.704Z,100008.94
2023-06-10T00:46:19.777Z,99997.72
2023-06-10T00:49:22.402Z,100015.06
2023-06-10T00:52:29.174Z,100013.44
2023-06-10T00:55:33.815Z,100020.16
2023-06-10T00:58:37.048Z,99999.22
2023-06-10T01:01:41.095Z,100027.59
2023-06-10T01:04:43.682Z,100023.31
2023-06-10T01:08:29.982Z,100009.38
2023-06-10T01:11:42.594Z,99994.75
2023-06-10T01:14:46.337Z,100018.59
2023-06-10T01:18:00.450Z,100000.22
2023-06-10T01:21:03.289Z,99983.91
2023-06-10T01:24:09.294Z,100016.25
2023-06-10T01:27:16.995Z,100023.38
2023-06-10T01:30:24.331Z,100006.19
2023-06-10T01:33:30.644Z,100000.44
2023-06-10T01:36:34.571Z,100011.13
2023-06-10T01:39:37.683Z,100007.44
2023-06-10T01:42:40.119Z,100012.97
2023-06-10T01:45:42.631Z,100032.00
2023-06-10T01:48:45.029Z,100011.13
2023-06-10T01:51:47.407Z,100009.88
2023-06-10T01:54:49.821Z,100007.56
2023-06-10T01:57:53.012Z,100018.84
2023-06-10T02:00:55.610Z,100027.97
2023-06-10T02:03:58.105Z,100007.09
2023-06-10T02:07:00.680Z,100034.63
2023-06-10T02:10:03.146Z,100026.94
2023-06-10T02:13:06.160Z,100033.25
2023-06-10T02:16:08.852Z,100008.97
2023-06-10T02:19:11.240Z,100002.06
2023-06-10T02:22:14.006Z,100012.84
2023-06-10T02:25:16.529Z,100012.72
2023-06-10T02:28:19.134Z,100030.75
2023-06-10T02:31:22.473Z,100009.97
2023-06-10T02:34:24.969Z,100033.47
2023-06-10T02:37:28.396Z,100038.25
2023-06-10T02:40:31.794Z,100017.84
2023-06-10T02:43:34.542Z,100020.97
2023-06-10T02:46:37.109Z,100040.13
2023-06-10T02:49:41.245Z,100031.50
2023-06-10T02:52:45.703Z,100037.44
2023-06-10T02:55:48.482Z,100041.84
2023-06-10T02:58:53.647Z,100024.16
2023-06-10T03:01:57.660Z,100036.88
2023-06-10T03:05:02.120Z,100045.56
2023-06-10T03:08:05.068Z,100053.84
2023-06-10T03:11:09.948Z,100050.03
2023-06-10T03:14:13.005Z,100048.63
2023-06-10T03:17:15.494Z,100043.25
2023-06-10T03:20:19.551Z,100042.53
2023-06-10T03:23:23.149Z,100024.75
2023-06-10T03:26:28.491Z,100012.84
2023-06-10T03:29:31.690Z,100038.69
2023-06-10T03:32:34.546Z,100025.63
2023-06-10T03:35:37.328Z,100040.13
2023-06-10T03:38:41.605Z,100027.97
2023-06-10T03:41:44.508Z,100041.59
2023-06-10T03:44:48.005Z,100047.22
2023-06-10T03:47:50.527Z,100042.81
2023-06-10T03:50:57.353Z,100029.19
2023-06-10T03:53:59.976Z,100052.22
2023-06-10T03:57:03.218Z,100033.16
2023-06-10T04:00:13.447Z,100043.53
2023-06-10T04:03:18.900Z,100045.44
2023-06-10T04:06:26.681Z,100042.09
2023-06-10T04:09:30.537Z,100030.28
2023-06-10T04:12:33.284Z,100037.69
2023-06-10T04:15:35.807Z,100028.50
2023-06-10T04:18:45.539Z,100031.16
2023-06-10T04:21:48.580Z,100058.13
2023-06-10T04:24:51.124Z,100055.75
2023-06-10T04:27:54.426Z,100042.50
2023-06-10T04:30:56.970Z,100029.09
2023-06-10T04:33:59.651Z,100059.94
2023-06-10T04:37:02.711Z,100054.03
2023-06-10T04:40:06.728Z,100037.47
2023-06-10T04:43:09.795Z,100044.63
2023-06-10T04:46:14.536Z,100062.63
2023-06-10T04:49:17.001Z,100044.31
2023-06-10T04:52:19.658Z,100038.78
2023-06-10T04:55:22.800Z,100062.81
2023-06-10T04:58:25.428Z,100040.22
2023-06-10T05:01:28.844Z,100044.09
2023-06-10T05:04:31.486Z,100056.28
2023-06-10T05:07:33.875Z,100064.75
2023-06-10T05:10:36.391Z,100060.75
2023-06-10T05:13:38.807Z,100061.22
2023-06-10T05:16:41.285Z,100052.72
2023-06-10T05:19:44.543Z,100059.56
2023-06-10T05:22:47.642Z,100062.34
2023-06-10T05:25:50.210Z,100062.13
2023-06-10T05:28:52.631Z,100049.16
2023-06-10T05:31:57.732Z,100060.44
2023-06-10T05:35:01.293Z,100040.63
2023-06-10T05:38:04.320Z,100052.44
2023-06-10T05:41:06.871Z,100046.50
2023-06-10T05:44:10.409Z,100068.38
2023-06-10T05:47:13.766Z,100051.25
2023-06-10T05:50:16.472Z,100073.81
2023-06-10T05:53:18.948Z,100072.16
2023-06-10T05:56:23.462Z,100053.03
2023-06-10T05:59:25.986Z,100064.47
2023-06-10T06:02:28.578Z,100068.41
2023-06-10T06:05:35.938Z,100049.66
2023-06-10T06:08:38.377Z,100066.88
2023-06-10T06:11:42.590Z,100052.41
2023-06-10T06:14:45.927Z,100077.75
2023-06-10T06:17:48.459Z,100070.13
2023-06-10T06:20:51.253Z,100056.19
2023-06-10T06:23:53.829Z,100069.97
2023-06-10T06:26:56.318Z,100060.94
2023-06-10T06:29:58.926Z,100072.63
2023-06-10T06:33:02.233Z,100051.88
2023-06-10T06:36:04.863Z,100070.66
2023-06-10T06:39:07.286Z,100077.75
2023-06-10T06:42:10.003Z,100060.75
2023-06-10T06:45:37.910Z,100059.56
2023-06-10T06:48:40.420Z,100064.34
2023-06-10T06:51:42.838Z,100076.50
2023-06-10T06:54:45.299Z,100061.69
2023-06-10T06:57:48.875Z,100072.94
2023-06-10T07:00:51.555Z,100075.34
2023-06-10T07:03:54.197Z,100066.34
2023-06-10T07:06:56.663Z,100080.94
2023-06-10T07:09:59.125Z,100082.19
2023-06-10T07:13:01.685Z,100083.16
2023-06-10T07:16:04.470Z,100084.88
2023-06-10T07:19:06.999Z,100084.56
2023-06-10T07:22:09.904Z,100085.81
2023-06-10T07:25:12.599Z,100078.28
2023-06-10T07:28:15.197Z,100083.22
2023-06-10T07:31:17.673Z,100069.31
2023-06-10T07:34:20.328Z,100089.28
2023-06-10T07:37:22.715Z,100072.25
2023-06-10T07:40:25.672Z,100082.09
2023-06-10T07:43:28.146Z,100081.47
2023-06-10T07:46:30.703Z,100082.81
2023-06-10T07:49:33.140Z,100073.88
2023-06-10T07:52:35.651Z,100072.28
2023-06-10T07:55:38.155Z,100083.56
2023-06-10T07:58:40.563Z,100072.47
2023-06-10T08:01:43.933Z,100074.16
2023-06-10T08:04:46.352Z,100075.13
2023-06-10T08:07:48.880Z,100089.47
2023-06-10T08:10:51.374Z,100079.94
2023-06-10T08:13:53.792Z,100078.94
2023-06-10T08:16:56.326Z,100091.69
2023-06-10T08:19:58.907Z,100078.59
2023-06-10T08:23:01.290Z,100079.34
2023-06-10T08:26:03.708Z,100089.66
2023-06-10T08:29:06.194Z,100073.09
2023-06-10T08:32:08.822Z,100089.28
2023-06-10T08:35:11.404Z,100062.28
2023-06-10T08:38:14.077Z,100072.44
2023-06-10T08:41:18.753Z,100080.50
2023-06-10T08:44:29.404Z,100056.63
2023-06-10T08:47:36.761Z,100055.44
2023-06-10T08:50:40.689Z,100068.19
2023-06-10T08:54:03.954Z,100046.38
2023-06-10T08:57:09.356Z,100037.59
2023-06-10T09:00:13.322Z,100042.63
2023-06-10T09:03:16.243Z,100057.34
2023-06-10T09:06:19.549Z,100035.75
2023-06-10T09:09:23.723Z,100028.94
2023-06-10T09:12:26.362Z,100058.53
2023-06-10T09:15:29.012Z,100039.94
2023-06-10T09:18:32.018Z,100029.75
2023-06-10T09:21:34.823Z,100046.25
2023-06-10T09:24:37.418Z,100039.41
2023-06-10T09:27:51.270Z,100048.22
2023-06-10T09:31:04.977Z,100021.69
2023-06-10T09:34:12.746Z,100033.72
2023-06-10T09:37:21.972Z,100022.28
2023-06-10T09:40:24.680Z,100035.63
2023-06-10T09:43:47.480Z,100012.31
2023-06-10T09:46:51.851Z,100012.63
2023-06-10T09:49:54.762Z,100011.06
2023-06-10T09:52:57.271Z,100000.69
2023-06-10T09:55:59.688Z,100019.28
2023-06-10T09:59:02.976Z,100017.19
2023-06-10T10:02:06.417Z,100009.28
2023-06-10T10:05:10.945Z,100000.31
2023-06-10T10:08:13.602Z,100003.69
2023-06-10T10:11:18.308Z,100001.91
2023-06-10T10:14:22.081Z,99978.31
2023-06-10T10:17:26.229Z,99979.41
2023-06-10T10:20:32.376Z,99977.66
2023-06-10T10:23:49.816Z,99982.63
2023-06-10T10:26:56.851Z,99975.50
2023-06-10T10:30:00.837Z,99987.25
2023-06-10T10:33:11.155Z,99981.69
2023-06-10T10:36:14.955Z,99976.31
2023-06-10T10:39:18.304Z,99981.69
2023-06-10T10:42:21.310Z,99972.88
2023-06-10T10:45:24.078Z,99972.75
2023-06-10T10:48:30.732Z,99968.34
2023-06-10T10:51:35.499Z,99971.81
2023-06-10T10:54:40.618Z,99971.84
2023-06-10T10:57:43.092Z,99976.50
2023-06-10T11:00:46.408Z,99979.44
2023-06-10T11:03:50.369Z,99958.53
2023-06-10T11:07:06.694Z,99956.34
2023-06-10T11:10:13.647Z,99960.06
2023-06-10T11:13:17.027Z,99950.34
2023-06-10T11:16:20.971Z,99953.81
2023-06-10T11:19:36.934Z,99942.72
2023-06-10T11:22:59.916Z,99958.81
2023-06-10T11:26:28.276Z,99946.63
2023-06-10T11:29:30.833Z,99948.03
2023-06-10T11:32:35.427Z,99948.63
2023-06-10T11:35:38.026Z,99909.38
2023-06-10T11:38:42.049Z,99954.56
2023-06-10T11:41:44.494Z,99932.91
2023-06-10T11:44:54.427Z,99926.75
2023-06-10T11:48:00.820Z,99934.06
2023-06-10T11:51:12.212Z,99922.47
2023-06-10T11:54:14.630Z,99936.69
2023-06-10T11:57:17.088Z,99927.09
2023-06-10T12:00:19.927Z,99905.63
2023-06-10T12:03:23.782Z,99919.03
2023-06-10T12:06:26.493Z,99930.16
2023-06-10T12:09:30.817Z,99918.88
2023-06-10T12:12:36.095Z,99927.19
2023-06-10T12:15:38.704Z,99926.47
2023-06-10T12:18:41.280Z,99906.00
2023-06-10T12:21:45.719Z,99910.09
2023-06-10T12:25:02.233Z,99904.72
2023-06-10T12:28:05.993Z,99901.84
2023-06-10T12:31:09.131Z,99893.34
2023-06-10T12:34:11.674Z,99909.72
2023-06-10T12:37:14.780Z,99907.13
2023-06-10T12:40:17.194Z,99901.41
2023-06-10T12:43:24.104Z,99891.13
2023-06-10T12:46:26.716Z,99890.47
2023-06-10T12:49:29.214Z,99914.22
2023-06-10T12:52:31.786Z,99858.31
2023-06-10T12:55:34.689Z,99896.09
2023-06-10T12:58:37.118Z,99895.22
2023-06-10T13:01:40.214Z,99893.16
2023-06-10T13:04:44.446Z,99874.84
2023-06-10T13:07:47.517Z,99865.13
2023-06-10T13:10:50.121Z,99868.53
2023-06-10T13:13:52.763Z,99867.50
2023-06-10T13:16:56.026Z,99875.06
2023-06-10T13:19:58.546Z,99860.44
2023-06-10T13:23:00.908Z,99873.28
2023-06-10T13:26:04.329Z,99856.81
2023-06-10T13:29:06.841Z,99859.53
2023-06-10T13:32:09.627Z,99860.78
2023-06-10T13:35:12.163Z,99849.88
2023-06-10T13:38:14.899Z,99863.72
2023-06-10T13:41:17.588Z,99857.31
2023-06-10T13:44:19.962Z,99869.50
2023-06-10T13:47:22.944Z,99866.34
2023-06-10T13:50:26.188Z,99859.44
2023-06-10T13:53:28.599Z,99841.13
2023-06-10T13:56:31.564Z,99855.53
2023-06-10T13:59:33.974Z,99865.84
2023-06-10T14:02:36.490Z,99850.09
2023-06-10T14:05:39.036Z,99837.91
2023-06-10T14:08:42.077Z,99841.38
2023-06-10T14:11:44.895Z,99837.41
2023-06-10T14:14:47.247Z,99848.53
2023-06-10T14:17:49.650Z,99841.34
2023-06-10T14:20:52.169Z,99834.28
2023-06-10T14:23:54.580Z,99834.94
2023-06-10T14:26:59.428Z,99852.78
2023-06-10T14:30:02.049Z,99853.19
2023-06-10T14:33:04.472Z,99840.47
2023-06-10T14:36:07.042Z,99837.53
2023-06-10T14:39:09.542Z,99822.09
2023-06-10T14:42:12.140Z,99853.44
2023-06-10T14:45:16.069Z,99843.69
2023-06-10T14:48:18.443Z,99844.63
2023-06-10T14:51:22.086Z,99851.91
2023-06-10T14:54:24.642Z,99838.81
2023-06-10T14:57:27.045Z,99827.28
2023-06-10T15:00:29.419Z,99839.84
2023-06-10T15:03:31.845Z,99846.53
2023-06-10T15:06:34.199Z,99834.53
2023-06-10T15:09:36.555Z,99853.34
2023-06-10T15:12:39.160Z,99831.88
2023-06-10T15:15:41.542Z,99826.25
2023-06-10T15:18:43.965Z,99845.38
2023-06-10T15:21:46.419Z,99829.94
2023-06-10T15:24:49.201Z,99834.78
2023-06-10T15:27:52.539Z,99851.97
2023-06-10T15:30:55.000Z,99861.78
2023-06-10T15:33:57.366Z,99855.22
2023-06-10T15:36:59.804Z,99861.84
2023-06-10T15:40:02.235Z,99866.66
2023-06-10T15:43:04.729Z,99854.88
2023-06-10T15:46:07.153Z,99872.47
2023-06-10T15:49:09.728Z,99841.44
2023-06-10T15:52:12.851Z,99852.22
2023-06-10T15:55:15.545Z,99871.31
2023-06-10T15:58:17.938Z,99872.63
2023-06-10T16:01:20.574Z,99875.78
2023-06-10T16:04:23.099Z,99876.94
2023-06-10T16:07:25.694Z,99889.22
2023-06-10T16:10:28.073Z,99882.53
2023-06-10T16:13:30.571Z,99883.66
2023-06-10T16:16:33.118Z,99890.78
2023-06-10T16:19:37.138Z,99863.06
2023-06-10T16:22:41.671Z,99892.06
2023-06-10T16:25:46.698Z,99880.09
2023-06-10T16:28:49.804Z,99885.81
2023-06-10T16:31:52.419Z,99878.41
2023-06-10T16:34:54.920Z,99886.06
2023-06-10T16:37:58.181Z,99884.44
2023-06-10T16:41:01.937Z,99892.72
2023-06-10T16:44:04.622Z,99919.59
2023-06-10T16:47:07.483Z,99921.09
2023-06-10T16:50:10.341Z,99929.38
2023-06-10T16:53:12.922Z,99942.78
2023-06-10T16:56:15.431Z,99951.03
2023-06-10T16:59:17.974Z,99954.50
2023-06-10T17:02:21.004Z,99944.16
2023-06-10T17:05:23.536Z,99934.34
2023-06-10T17:08:26.012Z,99947.50
2023-06-10T17:11:28.376Z,99923.53
2023-06-10T17:14:31.257Z,99943.41
2023-06-10T17:17:35.002Z,99923.56
2023-06-10T17:20:37.541Z,99944.06
2023-06-10T17:23:39.956Z,99939.63
2023-06-10T17:26:42.340Z,99959.84
2023-06-10T17:29:44.761Z,99930.84
2023-06-10T17:32:47.187Z,99955.31
2023-06-10T17:35:50.182Z,99959.19
2023-06-10T17:38:52.579Z,99946.84
2023-06-10T17:41:55.062Z,99928.03
2023-06-10T17:44:57.486Z,99921.34
2023-06-10T17:47:59.909Z,99935.91
2023-06-10T17:51:02.357Z,99938.06
2023-06-10T17:54:07.714Z,99927.19
2023-06-10T17:57:10.173Z,99944.53
2023-06-10T18:00:13.242Z,99927.50
2023-06-10T18:03:27.100Z,99950.53
2023-06-10T18:06:29.870Z,99937.78
2023-06-10T18:09:32.387Z,99956.38
2023-06-10T18:12:34.771Z,99946.28
2023-06-10T18:15:37.940Z,99957.59
2023-06-10T18:18:41.180Z,99967.22
2023-06-10T18:21:43.628Z,99947.41
2023-06-10T18:24:46.029Z,99967.09
2023-06-10T18:27:48.514Z,99949.53
2023-06-10T18:30:52.461Z,99970.09
2023-06-10T18:33:54.932Z,99950.25
2023-06-10T18:36:57.388Z,99971.28
2023-06-10T18:39:59.774Z,99993.72
2023-06-10T18:43:02.177Z,99995.91
2023-06-10T18:46:04.869Z,99977.59
2023-06-10T18:49:07.308Z,99994.41
2023-06-10T18:52:09.765Z,99982.88
2023-06-10T18:55:12.361Z,100004.53
2023-06-10T18:58:14.882Z,99995.63
2023-06-10T19:01:17.548Z,100012.84
2023-06-10T19:04:19.994Z,100014.69
2023-06-10T19:07:22.368Z,100031.19
2023-06-10T19:10:24.892Z,100016.47
2023-06-10T19:13:28.681Z,100029.41
2023-06-10T19:16:31.588Z,99986.91
2023-06-10T19:19:34.047Z,100011.75
2023-06-10T19:22:36.676Z,100006.59
2023-06-10T19:25:39.149Z,100021.44
2023-06-10T19:28:41.501Z,100017.56
2023-06-10T19:31:43.966Z,99995.59
2023-06-10T19:34:46.468Z,100020.59
2023-06-10T19:37:48.891Z,100034.53
2023-06-10T19:40:51.311Z,100007.56
2023-06-10T19:43:53.732Z,100034.09
2023-06-10T19:46:56.202Z,100010.88
2023-06-10T19:49:58.682Z,100007.00
2023-06-10T19:53:01.434Z,99979.88
2023-06-10T19:56:03.863Z,99997.81
2023-06-10T19:59:06.749Z,99999.03
2023-06-10T20:02:09.229Z,100007.53
2023-06-10T20:05:11.888Z,100005.03
2023-06-10T20:08:14.705Z,100022.19
2023-06-10T20:11:17.214Z,100008.78
2023-06-10T20:14:19.670Z,100015.66
2023-06-10T20:17:22.107Z,100029.53
2023-06-10T20:20:25.288Z,100030.69
2023-06-10T20:23:27.698Z,100026.81
2023-06-10T20:26:30.106Z,99985.41
2023-06-10T20:29:32.531Z,100019.16
2023-06-10T20:32:35.083Z,100018.06
2023-06-10T20:35:37.525Z,100014.88
2023-06-10T20:38:39.882Z,100033.09
2023-06-10T20:41:42.378Z,100031.00
2023-06-10T20:44:44.898Z,100025.00
2023-06-10T20:47:47.884Z,100000.09
2023-06-10T20:50:50.530Z,100033.09
2023-06-10T20:53:52.998Z,100035.59
2023-06-10T20:56:55.657Z,100009.72
2023-06-10T20:59:58.116Z,100017.63
2023-06-10T21:03:00.835Z,100039.00
2023-06-10T21:06:03.534Z,100014.22
2023-06-10T21:09:06.084Z,100005.03
2023-06-10T21:12:08.926Z,100023.53
2023-06-10T21:15:11.753Z,100024.75
2023-06-10T21:18:14.347Z,100003.06
2023-06-10T21:21:16.780Z,99998.91
2023-06-10T21:24:19.392Z,100017.81
2023-06-10T21:27:23.532Z,100010.44
2023-06-10T21:30:26.916Z,99983.38
2023-06-10T21:33:29.311Z,99993.16
2023-06-10T21:36:31.696Z,100010.13
2023-06-10T21:39:34.104Z,100014.34
2023-06-10T21:42:36.509Z,100007.28
2023-06-10T21:45:38.962Z,100005.91
2023-06-10T21:48:41.377Z,100003.66
2023-06-10T21:51:45.990Z,100005.34
2023-06-10T21:54:48.373Z,100016.91
2023-06-10T21:57:50.846Z,99994.00
2023-06-10T22:00:53.350Z,100007.56
2023-06-10T22:03:55.872Z,99988.88
2023-06-10T22:06:59.043Z,100005.00
2023-06-10T22:10:03.826Z,99985.34
2023-06-10T22:13:09.121Z,99984.38
2023-06-10T22:16:12.028Z,99996.91
2023-06-10T22:19:14.404Z,99992.03
2023-06-10T22:22:16.831Z,99992.88
2023-06-10T22:25:19.230Z,99966.38
2023-06-10T22:28:21.696Z,99988.25
2023-06-10T22:31:24.122Z,99989.78
2023-06-10T22:34:26.778Z,99972.63
2023-06-10T22:37:29.178Z,99951.91
2023-06-10T22:40:31.642Z,99978.91
2023-06-10T22:43:34.178Z,99989.97
2023-06-10T22:46:37.179Z,99989.16
2023-06-10T22:49:39.587Z,99978.56
2023-06-10T22:52:42.208Z,99989.53
2023-06-10T22:55:45.054Z,99970.72
2023-06-10T22:58:47.591Z,99971.63
2023-06-10T23:01:50.063Z,99984.44
2023-06-10T23:04:53.049Z,99954.09
2023-06-10T23:07:55.436Z,99961.78
2023-06-10T23:10:57.889Z,99973.69
2023-06-10T23:14:00.266Z,99976.44
2023-06-10T23:17:02.631Z,99967.97
2023-06-10T23:20:07.393Z,99985.16
2023-06-10T23:23:10.573Z,99963.66
2023-06-10T23:26:12.971Z,99963.22
2023-06-10T23:29:15.426Z,99982.53
2023-06-10T23:32:17.885Z,99985.03
2023-06-10T23:35:20.616Z,99971.09
2023-06-10T23:38:23.060Z,99984.91
2023-06-10T23:41:26.066Z,99969.53
2023-06-10T23:44:28.451Z,99990.41
2023-06-10T23:47:31.059Z,99980.75
2023-06-10T23:50:37.095Z,99966.78
2023-06-10T23:53:39.516Z,99970.22
2023-06-10T23:56:42.025Z,99988.50
2023-06-10T23:59:44.438Z,99974.31
